Time;durP1;ratioP1;P1;durP2;ratioP2;P2;SDS_P1;SDS_P2;PMS_P1;PMS_P2;Temp;Humidity;BMP_temperature;BMP_pressure;BME280_temperature;BME280_humidity;BME280_pressure;Samples;Min_cycle;Max_cycle;Signal;HPM_P1;HPM_P2
2023/08/09 00:00:28;;;;;;;0.10;0.10;;;;;;;12.81;100.00;101091.31;5055580;28;20044;-49
2023/08/09 00:02:53;;;;;;;0.10;0.10;;;;;;;12.84;100.00;101102.56;5055174;28;20604;-50
2023/08/09 00:05:20;;;;;;;0.10;0.10;;;;;;;12.82;100.00;101112.03;5056122;28;20025;-52
2023/08/09 00:07:45;;;;;;;0.20;0.20;;;;;;;12.88;100.00;101107.84;5055671;28;20035;-50
2023/08/09 00:10:10;;;;;;;0.10;0.10;;;;;;;12.88;100.00;101108.69;5054931;28;20020;-50
2023/08/09 00:12:36;;;;;;;0.10;0.10;;;;;;;12.88;100.00;101113.00;5055463;28;20025;-50
2023/08/09 00:15:02;;;;;;;0.10;0.10;;;;;;;12.89;100.00;101101.84;5055713;28;20464;-51
2023/08/09 00:17:28;;;;;;;0.10;0.10;;;;;;;12.86;100.00;101102.63;5054512;28;20083;-50
2023/08/09 00:19:53;;;;;;;0.10;0.10;;;;;;;12.89;100.00;101112.19;5055710;28;20473;-50
2023/08/09 00:22:18;;;;;;;0.13;0.13;;;;;;;12.88;100.00;101113.00;5055748;28;20045;-51
2023/08/09 00:24:44;;;;;;;0.10;0.10;;;;;;;12.89;100.00;101109.59;5054612;28;20350;-48
2023/08/09 00:27:09;;;;;;;0.10;0.10;;;;;;;12.88;100.00;101118.19;5055472;28;20116;-51
2023/08/09 00:29:35;;;;;;;0.10;0.10;;;;;;;12.90;100.00;101116.50;5055137;28;20017;-50
2023/08/09 00:32:00;;;;;;;0.20;0.20;;;;;;;12.91;100.00;101113.97;5054527;28;20025;-51
2023/08/09 00:34:25;;;;;;;0.10;0.10;;;;;;;12.88;100.00;101113.88;5055030;28;20028;-50
2023/08/09 00:36:51;;;;;;;0.10;0.10;;;;;;;12.87;100.00;101108.66;5055381;28;20024;-51
2023/08/09 00:39:16;;;;;;;0.10;0.10;;;;;;;12.82;100.00;101112.03;5054560;28;20029;-49
2023/08/09 00:41:42;;;;;;;0.10;0.10;;;;;;;12.88;100.00;101113.00;5054917;28;20032;-50
2023/08/09 00:44:07;;;;;;;0.10;0.10;;;;;;;12.88;100.00;101113.00;5055241;28;20056;-49
2023/08/09 00:46:34;;;;;;;0.10;0.10;;;;;;;12.90;100.00;101111.31;5053756;28;20489;-52
2023/08/09 00:49:00;;;;;;;0.10;0.10;;;;;;;12.86;100.00;101110.41;5055271;28;20029;-52
2023/08/09 00:51:25;;;;;;;0.10;0.10;;;;;;;12.81;100.00;101112.84;5053898;28;20047;-48
2023/08/09 00:53:51;;;;;;;0.10;0.10;;;;;;;12.79;100.00;101113.66;5055028;28;20032;-50
2023/08/09 00:56:16;;;;;;;0.20;0.20;;;;;;;12.81;100.00;101117.16;5054239;28;20032;-50
2023/08/09 00:58:41;;;;;;;0.10;0.10;;;;;;;12.80;100.00;101116.28;5053743;28;20797;-51
2023/08/09 01:01:07;;;;;;;0.10;0.10;;;;;;;12.84;100.00;101123.25;5054726;28;20021;-51
2023/08/09 01:03:32;;;;;;;0.10;0.10;;;;;;;12.83;100.00;101125.81;5054665;28;20025;-51
2023/08/09 01:06:32;;;;;;;0.10;0.10;;;;;;;12.89;100.00;101132.88;5054132;28;20025;-52
2023/08/09 01:09:10;;;;;;;0.17;0.17;;;;;;;12.87;100.00;101117.28;5054664;28;20029;-51
2023/08/09 01:11:52;;;;;;;0.10;0.10;;;;;;;12.87;100.00;101121.59;5054269;28;20029;-51
2023/08/09 01:14:20;;;;;;;0.10;0.10;;;;;;;12.89;100.00;101127.69;5054040;28;20017;-50
2023/08/09 01:16:46;;;;;;;0.17;0.17;;;;;;;12.82;100.00;101130.13;5054162;28;20451;-51
2023/08/09 01:19:29;;;;;;;0.10;0.10;;;;;;;12.87;100.00;101126.78;5054626;28;20027;-50
2023/08/09 01:21:56;;;;;;;0.10;0.10;;;;;;;12.82;100.00;101131.81;5053813;28;20484;-51
2023/08/09 01:24:22;;;;;;;0.20;0.10;;;;;;;12.87;100.00;101131.94;5054642;28;20021;-51
2023/08/09 01:26:48;;;;;;;0.10;0.10;;;;;;;12.88;100.00;101126.81;5053664;28;20445;-50
2023/08/09 01:29:13;;;;;;;0.10;0.10;;;;;;;12.84;100.00;101123.25;5054388;28;20045;-52
2023/08/09 01:31:39;;;;;;;0.10;0.10;;;;;;;12.84;100.00;101125.84;5053929;28;20515;-51
2023/08/09 01:34:04;;;;;;;0.20;0.20;;;;;;;12.80;100.00;101126.63;5053487;28;20040;-51
2023/08/09 01:36:34;;;;;;;0.10;0.10;;;;;;;12.70;100.00;101140.16;5053782;28;20024;-51
2023/08/09 01:39:07;;;;;;;0.10;0.10;;;;;;;12.59;100.00;101134.72;5054331;28;20025;-52
2023/08/09 01:41:33;;;;;;;0.10;0.10;;;;;;;12.43;100.00;101130.84;5053244;28;20532;-52
2023/08/09 01:43:59;;;;;;;0.10;0.10;;;;;;;12.42;100.00;101138.56;5054149;28;20037;-51
2023/08/09 01:46:25;;;;;;;0.10;0.10;;;;;;;12.34;100.00;101136.66;5053551;28;20101;-50
2023/08/09 01:48:51;;;;;;;0.10;0.10;;;;;;;12.33;100.00;101141.75;5053146;28;20445;-49
2023/08/09 01:51:16;;;;;;;0.20;0.20;;;;;;;12.19;100.00;101141.41;5053873;28;20032;-52
2023/08/09 01:53:41;;;;;;;0.10;0.10;;;;;;;12.12;100.00;101154.97;5053746;28;20032;-51
2023/08/09 01:56:06;;;;;;;0.10;0.10;;;;;;;12.13;100.00;101146.41;5053312;28;20029;-51
2023/08/09 01:58:32;;;;;;;0.10;0.10;;;;;;;12.06;100.00;101150.53;5053531;28;20029;-51
2023/08/09 02:00:57;;;;;;;0.10;0.10;;;;;;;11.94;100.00;101144.97;5053666;28;20467;-51
2023/08/09 02:03:25;;;;;;;0.17;0.17;;;;;;;11.84;100.00;101144.72;5052530;28;20025;-48
2023/08/09 02:05:51;;;;;;;0.10;0.10;;;;;;;11.77;100.00;101149.66;5053436;28;20055;-50
2023/08/09 02:08:16;;;;;;;0.10;0.10;;;;;;;11.71;100.00;101150.34;5053775;28;20029;-51
2023/08/09 02:10:42;;;;;;;0.10;0.10;;;;;;;11.68;100.00;101148.56;5052608;28;20031;-49
2023/08/09 02:13:07;;;;;;;0.10;0.10;;;;;;;11.61;100.00;101154.34;5053349;28;20025;-51
2023/08/09 02:15:32;;;;;;;0.10;0.10;;;;;;;11.58;100.00;101155.97;5053201;28;20528;-52
2023/08/09 02:17:58;;;;;;;0.10;0.10;;;;;;;11.48;100.00;101153.09;5052905;28;20028;-50
2023/08/09 02:20:23;;;;;;;0.20;0.20;;;;;;;11.47;100.00;101156.50;5053167;28;20087;-49
2023/08/09 02:22:49;;;;;;;0.10;0.10;;;;;;;11.44;100.00;101153.84;5053188;28;20029;-52
2023/08/09 02:25:14;;;;;;;0.10;0.10;;;;;;;11.42;100.00;101158.06;5053220;28;20044;-51
2023/08/09 02:27:40;;;;;;;0.10;0.10;;;;;;;11.31;100.00;101162.00;5052923;28;20021;-50
2023/08/09 02:30:06;;;;;;;0.10;0.10;;;;;;;11.11;100.00;101163.97;5052537;28;20036;-51
2023/08/09 02:32:32;;;;;;;0.10;0.10;;;;;;;10.97;100.00;101161.78;5053027;28;20028;-52
2023/08/09 02:34:58;;;;;;;0.20;0.20;;;;;;;10.96;100.00;101165.22;5053149;28;20028;-52
2023/08/09 02:37:24;;;;;;;0.10;0.10;;;;;;;10.97;100.00;101168.66;5051877;28;20450;-51
2023/08/09 02:39:50;;;;;;;0.20;0.20;;;;;;;10.87;100.00;101181.25;5053086;28;20108;-51
2023/08/09 02:42:16;;;;;;;0.20;0.20;;;;;;;10.93;100.00;101184.88;5052861;28;20052;-51
2023/08/09 02:44:41;;;;;;;0.30;0.30;;;;;;;10.84;100.00;101186.28;5051810;28;20031;-51
2023/08/09 02:47:08;;;;;;;0.20;0.20;;;;;;;10.84;100.00;101188.00;5052893;28;20028;-51
2023/08/09 02:49:33;;;;;;;0.20;0.20;;;;;;;10.93;100.00;101187.44;5052479;28;20032;-51
2023/08/09 02:52:00;;;;;;;0.20;0.20;;;;;;;11.02;100.00;101188.63;5052288;28;20041;-52
2023/08/09 02:54:25;;;;;;;0.20;0.20;;;;;;;10.89;100.00;101188.19;5052541;28;20424;-50
2023/08/09 02:56:50;;;;;;;0.10;0.10;;;;;;;10.90;100.00;101192.47;5052954;28;20473;-50
2023/08/09 02:59:16;;;;;;;0.20;0.20;;;;;;;10.87;100.00;101196.72;5051945;28;20469;-49
2023/08/09 03:01:44;;;;;;;0.17;0.17;;;;;;;10.95;100.00;101194.41;5052388;28;20028;-50
2023/08/09 03:04:09;;;;;;;0.17;0.17;;;;;;;10.85;100.00;101203.53;5052607;28;20551;-51
2023/08/09 03:06:35;;;;;;;0.20;0.20;;;;;;;10.77;100.00;101201.50;5051745;28;20108;-51
2023/08/09 03:09:01;;;;;;;0.10;0.10;;;;;;;10.79;100.00;101200.72;5052767;28;20082;-51
2023/08/09 03:11:27;;;;;;;0.10;0.10;;;;;;;10.62;100.00;101207.03;5052260;28;20377;-51
2023/08/09 03:13:52;;;;;;;0.10;0.10;;;;;;;10.54;100.00;101212.78;5051931;28;20461;-51
2023/08/09 03:16:18;;;;;;;0.20;0.20;;;;;;;10.67;100.00;101208.06;5052620;28;20022;-50
2023/08/09 03:18:43;;;;;;;0.13;0.13;;;;;;;10.63;100.00;101206.19;5054749;28;20021;-50
2023/08/09 03:21:09;;;;;;;0.20;0.20;;;;;;;10.67;100.00;101196.03;5056071;28;20092;-51
2023/08/09 03:23:35;;;;;;;0.20;0.20;;;;;;;10.64;100.00;101197.63;5056385;28;20036;-51
2023/08/09 03:26:01;;;;;;;0.20;0.20;;;;;;;10.52;100.00;101193.81;5056732;28;20059;-51
2023/08/09 03:28:28;;;;;;;0.20;0.20;;;;;;;10.46;100.00;101206.47;5055656;28;20098;-50
2023/08/09 03:30:53;;;;;;;0.10;0.10;;;;;;;10.49;100.00;101209.16;5056570;28;20151;-51
2023/08/09 03:33:19;;;;;;;0.20;0.20;;;;;;;10.49;100.00;101209.16;5055880;28;20096;-52
2023/08/09 03:35:44;;;;;;;0.13;0.13;;;;;;;10.46;100.00;101211.63;5056314;28;20538;-50
2023/08/09 03:38:10;;;;;;;0.20;0.20;;;;;;;10.44;100.00;101221.00;5056559;28;20032;-52
2023/08/09 03:40:35;;;;;;;0.20;0.20;;;;;;;10.59;100.00;101224.94;5055493;28;20036;-50
2023/08/09 03:43:01;;;;;;;0.20;0.20;;;;;;;10.39;100.00;101235.41;5056529;28;20094;-51
2023/08/09 03:45:26;;;;;;;0.10;0.10;;;;;;;10.28;100.00;101234.13;5055812;28;20071;-51
2023/08/09 03:47:52;;;;;;;0.15;0.15;;;;;;;10.24;100.00;101237.38;5055414;28;20029;-51
2023/08/09 03:50:18;;;;;;;0.20;0.20;;;;;;;10.21;100.00;101238.16;5056413;28;20180;-50
2023/08/09 03:52:44;;;;;;;0.15;0.15;;;;;;;10.16;100.00;101245.72;5056030;28;20396;-52
2023/08/09 03:55:09;;;;;;;0.10;0.10;;;;;;;10.17;100.00;101244.00;5055405;28;20508;-50
2023/08/09 03:57:34;;;;;;;0.20;0.20;;;;;;;10.25;100.00;101239.16;5055926;28;20465;-51
2023/08/09 04:00:02;;;;;;;0.20;0.20;;;;;;;10.20;100.00;101250.16;5056046;28;20377;-51
2023/08/09 04:02:28;;;;;;;0.13;0.13;;;;;;;10.23;100.00;101251.13;5054747;28;20028;-52
2023/08/09 04:04:53;;;;;;;0.10;0.10;;;;;;;10.24;100.00;101252.84;5056055;28;20017;-52
2023/08/09 04:07:19;;;;;;;0.20;0.20;;;;;;;10.18;100.00;101251.78;5055895;28;20033;-51
2023/08/09 04:09:44;;;;;;;0.20;0.20;;;;;;;10.18;100.00;101256.94;5054822;28;20031;-52
2023/08/09 04:12:10;;;;;;;0.20;0.20;;;;;;;10.13;100.00;101261.03;5055834;28;20029;-49
2023/08/09 04:14:35;;;;;;;0.20;0.20;;;;;;;10.10;100.00;101257.50;5055408;28;20027;-51
2023/08/09 04:17:00;;;;;;;0.10;0.10;;;;;;;10.14;100.00;101256.78;5054818;28;20384;-48
2023/08/09 04:19:26;;;;;;;0.20;0.20;;;;;;;10.13;100.00;101255.88;5055714;28;20036;-50
2023/08/09 04:21:52;;;;;;;0.20;0.20;;;;;;;10.24;100.00;101251.16;5055721;28;20017;-50
2023/08/09 04:24:18;;;;;;;0.20;0.20;;;;;;;10.23;100.00;101256.25;5054690;28;20067;-48
2023/08/09 04:26:43;;;;;;;0.10;0.10;;;;;;;10.23;100.00;101257.13;5055186;28;20521;-47
2023/08/09 04:29:09;;;;;;;0.20;0.20;;;;;;;10.28;100.00;101250.44;5054532;28;20485;-49
2023/08/09 04:31:34;;;;;;;0.20;0.20;;;;;;;10.43;100.00;101254.44;5053960;28;20039;-47
2023/08/09 04:34:00;;;;;;;0.20;0.20;;;;;;;10.45;100.00;101258.81;5055521;28;20033;-51
2023/08/09 04:36:26;;;;;;;0.20;0.20;;;;;;;10.42;100.00;101263.88;5054842;28;20036;-50
2023/08/09 04:38:51;;;;;;;0.20;0.20;;;;;;;10.54;100.00;101263.44;5055116;28;20495;-48
2023/08/09 04:41:17;;;;;;;0.20;0.20;;;;;;;10.38;100.00;101262.03;5055090;28;20354;-51
2023/08/09 04:43:43;;;;;;;0.20;0.20;;;;;;;10.53;100.00;101267.75;5054298;28;20029;-51
2023/08/09 04:46:10;;;;;;;0.20;0.20;;;;;;;10.41;100.00;101277.59;5054959;28;20071;-52
2023/08/09 04:48:37;;;;;;;0.20;0.20;;;;;;;10.45;100.00;101278.56;5055016;28;20039;-51
2023/08/09 04:51:03;;;;;;;0.10;0.10;;;;;;;10.47;100.00;101288.13;5054477;28;20032;-49
2023/08/09 04:53:28;;;;;;;0.20;0.20;;;;;;;10.52;100.00;101275.38;5054862;28;20021;-47
2023/08/09 04:55:53;;;;;;;0.10;0.10;;;;;;;10.69;100.00;101283.72;5054991;28;20021;-46
2023/08/09 04:58:19;;;;;;;0.20;0.20;;;;;;;10.70;100.00;101270.03;5054047;28;20027;-50
2023/08/09 05:00:44;;;;;;;0.20;0.20;;;;;;;10.85;100.00;101286.03;5054537;28;20037;-47
2023/08/09 05:03:09;;;;;;;0.10;0.10;;;;;;;10.98;100.00;101287.34;5054961;28;20029;-52
2023/08/09 05:05:35;;;;;;;0.13;0.13;;;;;;;11.14;100.00;101290.47;5053761;28;20033;-48
2023/08/09 05:08:00;;;;;;;0.13;0.13;;;;;;;11.25;100.00;101288.28;5054821;28;20025;-46
2023/08/09 05:10:26;;;;;;;0.10;0.10;;;;;;;11.34;100.00;101289.44;5054435;28;20362;-48
2023/08/09 05:12:51;;;;;;;0.13;0.13;;;;;;;11.44;100.00;101294.91;5053969;28;20412;-51
2023/08/09 05:15:16;;;;;;;0.20;0.20;;;;;;;11.56;100.00;101294.44;5054713;28;20476;-51
2023/08/09 05:17:42;;;;;;;0.10;0.10;;;;;;;11.63;100.00;101289.53;5054224;28;20144;-51
2023/08/09 05:20:08;;;;;;;0.10;0.10;;;;;;;11.71;100.00;101292.38;5053993;28;20028;-51
2023/08/09 05:22:33;;;;;;;0.20;0.20;;;;;;;11.81;100.00;101291.84;5054196;28;20028;-52
2023/08/09 05:24:59;;;;;;;0.10;0.10;;;;;;;11.90;100.00;101292.94;5054549;28;20052;-49
2023/08/09 05:27:24;;;;;;;0.10;0.10;;;;;;;12.04;100.00;101299.44;5053321;28;20079;-51
2023/08/09 05:29:50;;;;;;;0.20;0.20;;;;;;;12.26;100.00;101311.28;5054107;28;20024;-50
2023/08/09 05:32:15;;;;;;;0.20;0.20;;;;;;;12.26;100.00;101318.19;5054458;28;20111;-51
2023/08/09 05:34:41;;;;;;;0.17;0.17;;;;;;;12.30;100.00;101320.03;5053307;28;20385;-51
2023/08/09 05:37:06;;;;;;;0.10;0.10;;;;;;;12.33;100.00;101317.53;5054283;28;20075;-51
2023/08/09 05:39:31;;;;;;;0.10;0.10;;;;;;;12.43;100.00;101327.31;5053796;28;20389;-48
2023/08/09 05:41:57;;;;;;;0.20;0.20;;;;;;;12.50;100.00;101323.22;5053057;28;20485;-47
2023/08/09 05:44:22;;;;;;;0.20;0.20;;;;;;;12.56;100.00;101327.69;5053525;28;20469;-48
2023/08/09 05:46:48;;;;;;;0.10;0.10;;;;;;;12.62;100.00;101325.28;5053470;28;20465;-51
2023/08/09 05:49:13;;;;;;;0.10;0.10;;;;;;;12.67;100.00;101321.13;5053858;28;20079;-52
2023/08/09 05:51:38;;;;;;;0.15;0.15;;;;;;;12.70;100.00;101321.19;5053687;28;20477;-51
2023/08/09 05:54:04;;;;;;;0.10;0.10;;;;;;;12.85;100.00;101321.63;5053202;28;20377;-51
2023/08/09 05:56:29;;;;;;;0.13;0.13;;;;;;;12.91;100.00;101326.09;5053543;28;20119;-51
2023/08/09 05:58:55;;;;;;;0.20;0.20;;;;;;;12.94;100.00;101330.47;5053545;28;20021;-49
2023/08/09 06:01:21;;;;;;;0.20;0.20;;;;;;;12.95;100.00;101332.22;5052841;28;20028;-51
2023/08/09 06:03:47;;;;;;;0.10;0.10;;;;;;;12.91;100.00;101326.09;5053330;28;20036;-50
2023/08/09 06:06:12;;;;;;;0.10;0.10;;;;;;;12.96;100.00;101334.88;5053428;28;20120;-51
2023/08/09 06:08:38;;;;;;;0.10;0.10;;;;;;;13.03;100.00;101346.25;5052623;28;20108;-51
2023/08/09 06:11:03;;;;;;;0.10;0.10;;;;;;;13.08;100.00;101344.66;5053349;28;20142;-51
2023/08/09 06:13:29;;;;;;;0.10;0.10;;;;;;;13.07;100.00;101342.91;5053145;28;20021;-53
2023/08/09 06:15:55;;;;;;;0.15;0.15;;;;;;;13.09;100.00;101354.19;5052709;28;20021;-52
2023/08/09 06:18:21;;;;;;;0.10;0.10;;;;;;;13.12;100.00;101354.25;5053347;28;20099;-50
2023/08/09 06:20:46;;;;;;;0.10;0.10;;;;;;;13.15;100.00;101367.28;5053272;28;20021;-51
2023/08/09 06:23:11;;;;;;;0.10;0.10;;;;;;;13.13;100.00;101370.66;5052564;28;20029;-48
2023/08/09 06:25:37;;;;;;;0.13;0.13;;;;;;;13.11;100.00;101374.94;5053089;28;20074;-52
2023/08/09 06:28:04;;;;;;;0.10;0.10;;;;;;;13.09;100.00;101385.25;5053214;28;20040;-49
2023/08/09 06:30:29;;;;;;;0.10;0.10;;;;;;;13.14;100.00;101375.91;5052151;28;20025;-52
2023/08/09 06:32:54;;;;;;;0.20;0.20;;;;;;;13.19;100.00;101378.59;5053272;28;20037;-51
2023/08/09 06:35:20;;;;;;;0.10;0.10;;;;;;;13.20;100.00;101382.09;5053251;28;20021;-50
2023/08/09 06:37:49;;;;;;;0.10;0.10;;;;;;;13.12;100.00;101387.03;5052030;28;20112;-50
2023/08/09 06:40:15;;;;;;;0.20;0.20;;;;;;;13.20;100.00;101387.25;5053138;28;20017;-52
2023/08/09 06:42:42;;;;;;;0.20;0.20;;;;;;;13.06;100.00;101381.69;5052818;28;20079;-52
2023/08/09 06:45:08;;;;;;;0.10;0.10;;;;;;;13.21;100.00;101389.00;5052215;28;20057;-51
2023/08/09 06:47:33;;;;;;;0.10;0.10;;;;;;;13.36;100.00;101386.81;5052619;28;20051;-51
2023/08/09 06:50:00;;;;;;;0.10;0.10;;;;;;;13.39;100.00;101394.72;5053133;28;20041;-50
2023/08/09 06:52:26;;;;;;;0.20;0.20;;;;;;;13.51;100.00;101396.75;5051270;28;20041;-51
2023/08/09 06:54:52;;;;;;;0.10;0.10;;;;;;;13.55;100.00;101397.72;5052905;28;20357;-51
2023/08/09 06:57:17;;;;;;;0.15;0.15;;;;;;;13.69;100.00;101400.66;5052005;28;20025;-49
2023/08/09 06:59:42;;;;;;;0.10;0.10;;;;;;;13.79;100.00;101413.88;5052464;28;20060;-49
2023/08/09 07:02:09;;;;;;;0.15;0.15;;;;;;;14.05;100.00;101405.88;5052674;28;20075;-50
2023/08/09 07:04:35;;;;;;;0.10;0.10;;;;;;;13.94;100.00;101415.09;5051931;28;20083;-47
2023/08/09 07:07:01;;;;;;;0.10;0.10;;;;;;;13.96;100.00;101410.84;5052721;28;20033;-48
2023/08/09 07:09:26;;;;;;;0.10;0.10;;;;;;;14.12;100.00;101412.94;5052249;28;20457;-51
2023/08/09 07:11:52;;;;;;;0.20;0.20;;;;;;;14.30;100.00;101407.31;5051732;28;20017;-51
2023/08/09 07:14:17;;;;;;;0.10;0.10;;;;;;;14.36;100.00;101406.59;5052537;28;20025;-48
2023/08/09 07:16:43;;;;;;;0.10;0.10;;;;;;;14.63;100.00;101418.44;5052477;28;20098;-51
2023/08/09 07:19:08;;;;;;;0.10;0.10;;;;;;;14.87;100.00;101420.69;5052186;28;20111;-51
2023/08/09 07:21:34;;;;;;;0.10;0.10;;;;;;;15.03;100.00;101421.03;5052296;28;20032;-50
2023/08/09 07:23:59;;;;;;;0.08;0.08;;;;;;;14.90;100.00;101419.88;5052582;28;20064;-51
2023/08/09 07:26:26;;;;;;;0.10;0.10;;;;;;;15.13;100.00;101422.97;5051329;28;20108;-50
2023/08/09 07:28:52;;;;;;;0.10;0.10;;;;;;;15.12;100.00;101414.31;5052790;28;20104;-47
2023/08/09 07:31:22;;;;;;;0.20;0.17;;;;;;;15.26;100.00;101419.78;5052654;28;20017;-45
2023/08/09 07:33:48;;;;;;;0.10;0.10;;;;;;;15.32;100.00;101424.19;5051389;28;20039;-49
2023/08/09 07:36:13;;;;;;;0.10;0.10;;;;;;;15.15;100.00;101421.28;5052482;28;20022;-50
2023/08/09 07:38:39;;;;;;;0.10;0.10;;;;;;;15.31;100.00;101432.84;5052117;28;20048;-46
2023/08/09 07:41:04;;;;;;;0.10;0.10;;;;;;;15.53;100.00;101423.75;5051553;28;20013;-49
2023/08/09 07:43:30;;;;;;;0.10;0.10;;;;;;;15.50;100.00;101428.00;5052255;28;20369;-50
2023/08/09 07:45:55;;;;;;;0.10;0.10;;;;;;;15.57;100.00;101435.94;5052459;28;20068;-48
2023/08/09 07:48:21;;;;;;;0.10;0.10;;;;;;;15.69;100.00;101430.09;5051699;28;20021;-47
2023/08/09 07:50:46;;;;;;;0.10;0.10;;;;;;;15.77;100.00;101444.09;5051964;28;20025;-53
2023/08/09 07:53:12;;;;;;;0.10;0.10;;;;;;;15.89;100.00;101438.25;5052229;28;20029;-50
2023/08/09 07:55:39;;;;;;;0.10;0.10;;;;;;;15.92;100.00;101442.63;5051125;28;20427;-50
2023/08/09 07:58:05;;;;;;;0.20;0.20;;;;;;;16.17;100.00;101445.66;5051886;28;20465;-50
2023/08/09 08:00:31;;;;;;;0.10;0.10;;;;;;;16.33;100.00;101450.22;5051358;28;20025;-51
2023/08/09 08:02:56;;;;;;;0.10;0.10;;;;;;;16.21;100.00;101457.84;5052276;28;20447;-50
2023/08/09 08:05:22;;;;;;;0.10;0.10;;;;;;;16.16;100.00;101451.69;5055096;28;20485;-50
2023/08/09 08:07:47;;;;;;;0.10;0.10;;;;;;;16.24;100.00;101457.88;5054885;28;20821;-51
2023/08/09 08:10:16;;;;;;;0.10;0.10;;;;;;;16.43;100.00;101462.53;5055688;28;20100;-47
2023/08/09 08:12:44;;;;;;;0.10;0.10;;;;;;;16.48;100.00;101464.34;5055631;28;20031;-50
2023/08/09 08:15:09;;;;;;;0.10;0.10;;;;;;;16.54;100.00;101460.09;5055163;28;20032;-51
2023/08/09 08:17:35;;;;;;;0.10;0.10;;;;;;;16.53;100.00;101455.75;5055568;28;20025;-51
2023/08/09 08:20:00;;;;;;;0.08;0.08;;;;;;;16.42;100.00;101462.50;5055740;28;20033;-52
2023/08/09 08:22:26;;;;;;;0.10;0.10;;;;;;;16.50;100.00;101471.31;5054618;28;20040;-49
2023/08/09 08:24:51;;;;;;;0.10;0.05;;;;;;;16.28;100.00;101472.69;5055418;28;20021;-51
2023/08/09 08:27:17;;;;;;;0.10;0.10;;;;;;;16.25;100.00;101468.31;5055560;28;20029;-46
2023/08/09 08:29:42;;;;;;;0.00;0.00;;;;;;;16.21;100.00;101474.31;5054590;28;20044;-51
2023/08/09 08:32:09;;;;;;;0.00;0.00;;;;;;;16.28;100.00;101472.69;5055474;28;20067;-51
2023/08/09 08:34:35;;;;;;;0.10;0.10;;;;;;;16.44;100.00;101479.03;5055064;28;20025;-51
2023/08/09 08:37:01;;;;;;;0.10;0.10;;;;;;;16.58;100.00;101481.84;5054570;28;20029;-51
2023/08/09 08:39:29;;;;;;;0.05;0.05;;;;;;;16.63;100.00;101485.38;5054910;28;20025;-50
2023/08/09 08:41:56;;;;;;;0.10;0.10;;;;;;;16.70;100.00;101482.00;5055412;28;20044;-45
2023/08/09 08:44:24;;;;;;;0.10;0.10;;;;;;;16.84;100.00;101476.13;5054670;28;20025;-51
2023/08/09 08:46:51;;;;;;;0.10;0.10;;;;;;;16.79;100.00;101487.34;5054940;28;20044;-49
2023/08/09 08:49:19;;;;;;;0.10;0.10;;;;;;;16.85;100.00;101490.88;5055155;28;20029;-50
2023/08/09 08:51:49;;;;;;;0.10;0.10;;;;;;;16.88;100.00;101501.34;5054082;28;20025;-49
2023/08/09 08:54:15;;;;;;;0.00;0.00;;;;;;;16.84;100.00;101495.22;5054913;28;20603;-50
2023/08/09 08:56:41;;;;;;;0.10;0.10;;;;;;;16.95;100.00;101503.19;5054224;28;20107;-50
2023/08/09 08:59:08;;;;;;;0.10;0.10;;;;;;;16.94;100.00;101494.53;5054911;28;20487;-50
2023/08/09 09:01:34;;;;;;;0.10;0.10;;;;;;;17.02;100.00;101494.63;5054693;28;20151;-50
2023/08/09 09:04:01;;;;;;;0.00;0.00;;;;;;;17.22;100.00;101501.81;5053965;28;20453;-51
2023/08/09 09:06:26;;;;;;;0.10;0.10;;;;;;;17.41;100.00;101506.41;5054208;28;20469;-49
2023/08/09 09:08:55;;;;;;;0.10;0.10;;;;;;;17.47;100.00;101510.84;5054876;28;20017;-51
2023/08/09 09:11:22;;;;;;;0.00;0.00;;;;;;;17.32;100.00;101510.66;5054080;28;20025;-51
2023/08/09 09:13:50;;;;;;;0.10;0.10;;;;;;;17.53;100.00;101505.69;5054775;28;20021;-51
2023/08/09 09:16:17;;;;;;;0.00;0.00;;;;;;;17.85;100.00;101514.72;5053959;28;20025;-47
2023/08/09 09:18:45;;;;;;;0.10;0.10;;;;;;;17.64;100.00;101517.94;5053436;28;20420;-51
2023/08/09 09:21:10;;;;;;;0.10;0.10;;;;;;;17.52;100.00;101521.28;5054469;28;20024;-51
2023/08/09 09:23:37;;;;;;;0.00;0.00;;;;;;;17.38;100.00;101516.78;5054053;28;20104;-51
2023/08/09 09:26:11;;;;;;;0.10;0.10;;;;;;;17.57;100.00;101525.72;5053641;28;20032;-50
2023/08/09 09:28:42;;;;;;;0.00;0.00;;;;;;;17.57;100.00;101532.63;5054073;28;20100;-50
2023/08/09 09:31:13;;;;;;;0.10;0.10;;;;;;;17.61;100.00;101531.81;5054258;28;20025;-51
2023/08/09 09:33:39;;;;;;;0.00;0.00;;;;;;;17.83;100.00;101532.06;5053110;28;20056;-51
2023/08/09 09:36:09;;;;;;;0.10;0.10;;;;;;;17.74;100.00;101533.72;5054450;28;20086;-47
2023/08/09 09:38:35;;;;;;;0.10;0.10;;;;;;;18.02;100.00;101527.94;5054104;28;20021;-50
2023/08/09 09:41:01;;;;;;;0.00;0.00;;;;;;;18.19;100.00;101530.69;5053517;28;20028;-50
2023/08/09 09:43:31;;;;;;;0.10;0.10;;;;;;;18.70;100.00;101531.97;5053751;28;20424;-50
2023/08/09 09:45:56;;;;;;;0.03;0.03;;;;;;;18.84;100.00;101531.22;5052950;28;20041;-49
2023/08/09 09:48:23;;;;;;;0.00;0.00;;;;;;;18.90;100.00;101532.16;5053841;28;20032;-50
2023/08/09 09:50:49;;;;;;;0.10;0.10;;;;;;;18.88;100.00;101523.38;5053835;28;20554;-51
2023/08/09 09:53:16;;;;;;;0.00;0.00;;;;;;;19.08;100.00;101531.38;5053241;28;20105;-50
2023/08/09 09:55:42;;;;;;;0.00;0.00;;;;;;;19.15;99.38;101529.66;5053490;28;20900;-51
2023/08/09 09:58:07;;;;;;;0.00;0.00;;;;;;;19.34;99.12;101533.25;5053738;28;20461;-47
2023/08/09 10:00:33;;;;;;;0.00;0.00;;;;;;;19.20;100.00;101529.69;5052802;28;20036;-49
2023/08/09 10:03:04;;;;;;;0.10;0.10;;;;;;;19.06;99.35;101527.88;5053751;28;20087;-50
2023/08/09 10:05:35;;;;;;;0.00;0.00;;;;;;;19.18;98.69;101531.44;5053251;28;20035;-51
2023/08/09 10:08:06;;;;;;;0.00;0.00;;;;;;;19.66;91.90;101524.63;5053001;28;20032;-51
2023/08/09 10:10:34;;;;;;;0.00;0.00;;;;;;;20.06;92.57;101524.75;5053286;28;20024;-50
2023/08/09 10:13:03;;;;;;;0.00;0.00;;;;;;;20.38;92.31;101526.47;5053495;28;20025;-49
2023/08/09 10:15:32;;;;;;;0.00;0.00;;;;;;;20.51;91.64;101516.00;5052269;28;20392;-49
2023/08/09 10:18:14;;;;;;;0.00;0.00;;;;;;;20.46;89.64;101529.09;5053499;28;20021;-50
2023/08/09 10:20:47;;;;;;;0.00;0.00;;;;;;;20.49;90.49;101522.97;5053192;28;20162;-50
2023/08/09 10:23:24;;;;;;;0.00;0.00;;;;;;;20.94;90.59;101518.59;5052741;28;20070;-50
2023/08/09 10:25:51;;;;;;;0.00;0.00;;;;;;;21.37;85.34;101526.28;5053172;28;20106;-52
2023/08/09 10:28:18;;;;;;;0.10;0.10;;;;;;;21.91;80.13;101526.91;5051474;28;20031;-51
2023/08/09 10:30:53;;;;;;;0.10;0.10;;;;;;;22.97;78.29;101539.13;5053070;28;20291;-51
2023/08/09 10:33:19;;;;;;;0.00;0.00;;;;;;;23.53;74.96;101535.84;5053346;28;20158;-51
2023/08/09 10:35:46;;;;;;;0.00;0.00;;;;;;;23.76;67.41;101545.19;5052117;28;20107;-51
2023/08/09 10:38:15;;;;;;;0.00;0.00;;;;;;;23.83;67.31;101541.56;5053073;28;20021;-49
2023/08/09 10:40:42;;;;;;;0.00;0.00;;;;;;;24.18;66.05;101542.81;5052938;28;20028;-51
2023/08/09 10:43:18;;;;;;;0.00;0.00;;;;;;;24.57;67.09;101558.84;5052544;28;20037;-52
2023/08/09 10:45:45;;;;;;;0.00;0.00;;;;;;;25.53;55.21;101557.03;5052453;28;20041;-51
2023/08/09 10:48:19;;;;;;;0.00;0.00;;;;;;;25.24;60.03;101547.94;5053175;28;20021;-51
2023/08/09 10:50:45;;;;;;;0.00;0.00;;;;;;;25.55;59.32;101544.69;5051861;28;20072;-51
2023/08/09 10:53:10;;;;;;;0.00;0.00;;;;;;;24.84;58.92;101553.13;5053185;28;20079;-50
2023/08/09 10:55:36;;;;;;;0.00;0.00;;;;;;;24.28;59.50;101554.06;5052534;28;20033;-51
2023/08/09 10:58:02;;;;;;;0.00;0.00;;;;;;;24.39;62.52;101556.53;5052136;28;20032;-51
2023/08/09 11:00:38;;;;;;;0.00;0.00;;;;;;;24.92;65.14;101536.28;5052413;28;20074;-51
2023/08/09 11:03:04;;;;;;;0.00;0.00;;;;;;;25.18;52.49;101548.06;5052831;28;20082;-50
2023/08/09 11:05:29;;;;;;;0.47;0.00;;;;;;;25.83;53.28;101540.56;5051576;28;20025;-51
2023/08/09 11:08:08;;;;;;;0.00;0.00;;;;;;;25.13;51.70;101550.78;5053002;28;20021;-51
2023/08/09 11:10:40;;;;;;;0.00;0.00;;;;;;;24.82;54.12;101545.25;5051864;28;20127;-51
2023/08/09 11:13:08;;;;;;;0.00;0.00;;;;;;;24.69;54.44;101544.63;5052791;28;20040;-51
2023/08/09 11:15:35;;;;;;;0.00;0.00;;;;;;;24.24;52.25;101545.34;5052328;28;20104;-52